sensor_id;sensor_type;location;lat;lon;timestamp;P1;durP1;ratioP1;P2;durP2;ratioP2
49812;SDS011;35706;52.100;5.056;2022-10-14T00:00:41;43.28;;;19.13;;
49812;SDS011;35706;52.100;5.056;2022-10-14T00:01:41;37.60;;;18.73;;
49812;SDS011;35706;52.100;5.056;2022-10-14T00:02:41;47.97;;;17.77;;
49812;SDS011;35706;52.100;5.056;2022-10-14T00:03:42;39.63;;;20.38;;
49812;SDS011;35706;52.100;5.056;2022-10-14T00:04:43;43.22;;;18.88;;
49812;SDS011;35706;52.100;5.056;2022-10-14T00:05:43;45.42;;;19.95;;
49812;SDS011;35706;52.100;5.056;2022-10-14T00:06:43;65.63;;;18.63;;
49812;SDS011;35706;52.100;5.056;2022-10-14T00:07:44;39.88;;;19.50;;
49812;SDS011;35706;52.100;5.056;2022-10-14T00:08:44;35.88;;;18.52;;
49812;SDS011;35706;52.100;5.056;2022-10-14T00:09:46;39.55;;;19.17;;
49812;SDS011;35706;52.100;5.056;2022-10-14T00:10:46;54.97;;;19.38;;
49812;SDS011;35706;52.100;5.056;2022-10-14T00:11:46;41.13;;;20.92;;
49812;SDS011;35706;52.100;5.056;2022-10-14T00:12:47;42.17;;;19.95;;
49812;SDS011;35706;52.100;5.056;2022-10-14T00:13:47;35.88;;;18.70;;
49812;SDS011;35706;52.100;5.056;2022-10-14T00:14:47;33.92;;;17.75;;
49812;SDS011;35706;52.100;5.056;2022-10-14T00:15:48;37.70;;;18.20;;
49812;SDS011;35706;52.100;5.056;2022-10-14T00:16:51;57.72;;;20.08;;
49812;SDS011;35706;52.100;5.056;2022-10-14T00:17:52;46.58;;;20.17;;
49812;SDS011;35706;52.100;5.056;2022-10-14T00:18:52;43.75;;;18.33;;
49812;SDS011;35706;52.100;5.056;2022-10-14T00:19:53;41.22;;;19.98;;
49812;SDS011;35706;52.100;5.056;2022-10-14T00:20:57;36.42;;;18.77;;
49812;SDS011;35706;52.100;5.056;2022-10-14T00:21:58;37.90;;;19.25;;
49812;SDS011;35706;52.100;5.056;2022-10-14T00:22:59;36.40;;;18.65;;
49812;SDS011;35706;52.100;5.056;2022-10-14T00:23:59;34.90;;;18.90;;
49812;SDS011;35706;52.100;5.056;2022-10-14T00:24:59;37.13;;;19.52;;
49812;SDS011;35706;52.100;5.056;2022-10-14T00:26:00;39.25;;;20.42;;
49812;SDS011;35706;52.100;5.056;2022-10-14T00:27:00;39.28;;;19.73;;
49812;SDS011;35706;52.100;5.056;2022-10-14T00:28:00;37.42;;;20.08;;
49812;SDS011;35706;52.100;5.056;2022-10-14T00:29:03;34.72;;;18.98;;
49812;SDS011;35706;52.100;5.056;2022-10-14T00:30:04;35.75;;;19.17;;
49812;SDS011;35706;52.100;5.056;2022-10-14T00:31:05;34.03;;;19.48;;
49812;SDS011;35706;52.100;5.056;2022-10-14T00:32:05;36.65;;;19.15;;
49812;SDS011;35706;52.100;5.056;2022-10-14T00:33:06;36.53;;;19.60;;
49812;SDS011;35706;52.100;5.056;2022-10-14T00:34:06;39.03;;;20.02;;
49812;SDS011;35706;52.100;5.056;2022-10-14T00:35:06;34.97;;;19.25;;
49812;SDS011;35706;52.100;5.056;2022-10-14T00:36:07;34.33;;;18.60;;
49812;SDS011;35706;52.100;5.056;2022-10-14T00:37:08;30.42;;;18.17;;
49812;SDS011;35706;52.100;5.056;2022-10-14T00:38:08;31.73;;;18.58;;
49812;SDS011;35706;52.100;5.056;2022-10-14T00:39:09;30.20;;;17.13;;
49812;SDS011;35706;52.100;5.056;2022-10-14T00:40:10;29.90;;;18.02;;
49812;SDS011;35706;52.100;5.056;2022-10-14T00:41:15;32.65;;;17.90;;
49812;SDS011;35706;52.100;5.056;2022-10-14T00:42:20;34.00;;;18.88;;
49812;SDS011;35706;52.100;5.056;2022-10-14T00:43:21;33.35;;;18.58;;
49812;SDS011;35706;52.100;5.056;2022-10-14T00:45:23;31.75;;;18.30;;
49812;SDS011;35706;52.100;5.056;2022-10-14T00:46:25;29.38;;;17.50;;
49812;SDS011;35706;52.100;5.056;2022-10-14T00:47:27;26.83;;;16.90;;
49812;SDS011;35706;52.100;5.056;2022-10-14T00:48:28;30.83;;;18.10;;
49812;SDS011;35706;52.100;5.056;2022-10-14T00:49:33;27.60;;;17.17;;
49812;SDS011;35706;52.100;5.056;2022-10-14T00:50:38;29.08;;;17.63;;
49812;SDS011;35706;52.100;5.056;2022-10-14T00:51:43;28.58;;;17.27;;
49812;SDS011;35706;52.100;5.056;2022-10-14T00:52:55;29.98;;;17.20;;
49812;SDS011;35706;52.100;5.056;2022-10-14T00:53:57;28.58;;;17.13;;
49812;SDS011;35706;52.100;5.056;2022-10-14T00:55:10;29.67;;;16.13;;
49812;SDS011;35706;52.100;5.056;2022-10-14T00:56:14;31.10;;;18.15;;
49812;SDS011;35706;52.100;5.056;2022-10-14T00:57:18;29.30;;;18.38;;
49812;SDS011;35706;52.100;5.056;2022-10-14T00:58:19;32.83;;;18.25;;
49812;SDS011;35706;52.100;5.056;2022-10-14T00:59:19;28.73;;;18.25;;
49812;SDS011;35706;52.100;5.056;2022-10-14T01:00:20;30.23;;;17.63;;
49812;SDS011;35706;52.100;5.056;2022-10-14T01:01:20;30.58;;;17.60;;
49812;SDS011;35706;52.100;5.056;2022-10-14T01:02:21;27.30;;;15.88;;
49812;SDS011;35706;52.100;5.056;2022-10-14T01:03:21;32.97;;;17.23;;
49812;SDS011;35706;52.100;5.056;2022-10-14T01:04:22;33.03;;;17.33;;
49812;SDS011;35706;52.100;5.056;2022-10-14T01:05:25;28.95;;;17.33;;
49812;SDS011;35706;52.100;5.056;2022-10-14T01:06:37;27.98;;;17.55;;
49812;SDS011;35706;52.100;5.056;2022-10-14T01:08:55;27.58;;;15.65;;
49812;SDS011;35706;52.100;5.056;2022-10-14T01:11:16;31.23;;;17.00;;
49812;SDS011;35706;52.100;5.056;2022-10-14T01:13:41;30.27;;;16.85;;
49812;SDS011;35706;52.100;5.056;2022-10-14T01:14:56;32.88;;;17.45;;
49812;SDS011;35706;52.100;5.056;2022-10-14T01:16:08;35.95;;;18.90;;
49812;SDS011;35706;52.100;5.056;2022-10-14T01:17:37;34.25;;;18.98;;
49812;SDS011;35706;52.100;5.056;2022-10-14T01:18:59;29.27;;;17.27;;
49812;SDS011;35706;52.100;5.056;2022-10-14T01:21:41;35.55;;;19.35;;
49812;SDS011;35706;52.100;5.056;2022-10-14T01:22:46;34.65;;;18.55;;
49812;SDS011;35706;52.100;5.056;2022-10-14T01:25:32;34.40;;;18.05;;
49812;SDS011;35706;52.100;5.056;2022-10-14T01:29:56;33.00;;;18.38;;
49812;SDS011;35706;52.100;5.056;2022-10-14T01:31:05;34.60;;;18.63;;
49812;SDS011;35706;52.100;5.056;2022-10-14T01:32:12;31.00;;;18.38;;
49812;SDS011;35706;52.100;5.056;2022-10-14T01:33:27;29.92;;;18.08;;
49812;SDS011;35706;52.100;5.056;2022-10-14T01:34:39;34.22;;;19.58;;
49812;SDS011;35706;52.100;5.056;2022-10-14T01:36:50;35.88;;;20.42;;
49812;SDS011;35706;52.100;5.056;2022-10-14T01:38:10;38.33;;;21.05;;
49812;SDS011;35706;52.100;5.056;2022-10-14T01:39:16;38.60;;;21.42;;
49812;SDS011;35706;52.100;5.056;2022-10-14T01:40:22;33.22;;;19.60;;
49812;SDS011;35706;52.100;5.056;2022-10-14T01:41:28;35.35;;;19.88;;
49812;SDS011;35706;52.100;5.056;2022-10-14T01:42:34;40.03;;;21.25;;
49812;SDS011;35706;52.100;5.056;2022-10-14T01:43:38;35.47;;;21.13;;
49812;SDS011;35706;52.100;5.056;2022-10-14T01:44:41;37.47;;;21.17;;
49812;SDS011;35706;52.100;5.056;2022-10-14T01:45:46;36.33;;;20.90;;
49812;SDS011;35706;52.100;5.056;2022-10-14T01:46:52;35.45;;;19.77;;
49812;SDS011;35706;52.100;5.056;2022-10-14T01:47:54;36.90;;;21.23;;
49812;SDS011;35706;52.100;5.056;2022-10-14T01:48:58;39.40;;;22.23;;
49812;SDS011;35706;52.100;5.056;2022-10-14T01:50:06;38.45;;;21.45;;
49812;SDS011;35706;52.100;5.056;2022-10-14T01:51:11;39.20;;;20.90;;
49812;SDS011;35706;52.100;5.056;2022-10-14T01:52:17;40.63;;;22.55;;
49812;SDS011;35706;52.100;5.056;2022-10-14T01:53:22;40.40;;;22.17;;
49812;SDS011;35706;52.100;5.056;2022-10-14T01:54:27;47.15;;;23.65;;
49812;SDS011;35706;52.100;5.056;2022-10-14T01:55:32;47.00;;;24.08;;
49812;SDS011;35706;52.100;5.056;2022-10-14T01:56:36;44.55;;;23.60;;
49812;SDS011;35706;52.100;5.056;2022-10-14T01:57:38;42.33;;;23.23;;
49812;SDS011;35706;52.100;5.056;2022-10-14T01:58:42;43.92;;;22.77;;
49812;SDS011;35706;52.100;5.056;2022-10-14T01:59:43;42.53;;;23.15;;
49812;SDS011;35706;52.100;5.056;2022-10-14T02:00:46;43.53;;;23.85;;
49812;SDS011;35706;52.100;5.056;2022-10-14T02:01:47;42.78;;;23.40;;
49812;SDS011;35706;52.100;5.056;2022-10-14T02:02:47;40.92;;;23.30;;
49812;SDS011;35706;52.100;5.056;2022-10-14T02:03:48;43.40;;;21.98;;
49812;SDS011;35706;52.100;5.056;2022-10-14T02:04:48;44.05;;;23.77;;
49812;SDS011;35706;52.100;5.056;2022-10-14T02:05:57;46.33;;;23.85;;
49812;SDS011;35706;52.100;5.056;2022-10-14T02:07:05;53.42;;;24.48;;
49812;SDS011;35706;52.100;5.056;2022-10-14T02:11:13;48.95;;;23.75;;
49812;SDS011;35706;52.100;5.056;2022-10-14T02:13:36;46.33;;;23.88;;
49812;SDS011;35706;52.100;5.056;2022-10-14T02:20:32;51.92;;;24.98;;
49812;SDS011;35706;52.100;5.056;2022-10-14T02:21:39;50.65;;;24.25;;
49812;SDS011;35706;52.100;5.056;2022-10-14T02:22:44;53.83;;;25.90;;
49812;SDS011;35706;52.100;5.056;2022-10-14T02:23:53;49.15;;;23.88;;
49812;SDS011;35706;52.100;5.056;2022-10-14T02:25:03;53.70;;;24.50;;
49812;SDS011;35706;52.100;5.056;2022-10-14T02:26:08;56.22;;;26.52;;
49812;SDS011;35706;52.100;5.056;2022-10-14T02:27:10;53.58;;;26.70;;
49812;SDS011;35706;52.100;5.056;2022-10-14T02:28:17;50.55;;;24.70;;
49812;SDS011;35706;52.100;5.056;2022-10-14T02:29:20;52.75;;;26.00;;
49812;SDS011;35706;52.100;5.056;2022-10-14T02:30:22;55.80;;;27.40;;
49812;SDS011;35706;52.100;5.056;2022-10-14T02:31:22;51.83;;;24.45;;
49812;SDS011;35706;52.100;5.056;2022-10-14T02:32:24;50.53;;;24.67;;
49812;SDS011;35706;52.100;5.056;2022-10-14T02:33:28;57.70;;;26.08;;
49812;SDS011;35706;52.100;5.056;2022-10-14T02:34:32;46.78;;;24.23;;
49812;SDS011;35706;52.100;5.056;2022-10-14T02:35:35;57.60;;;25.92;;
49812;SDS011;35706;52.100;5.056;2022-10-14T02:36:38;50.20;;;25.08;;
49812;SDS011;35706;52.100;5.056;2022-10-14T02:37:40;53.92;;;26.30;;
49812;SDS011;35706;52.100;5.056;2022-10-14T02:38:41;48.78;;;25.13;;
49812;SDS011;35706;52.100;5.056;2022-10-14T02:39:43;52.50;;;25.80;;
49812;SDS011;35706;52.100;5.056;2022-10-14T02:40:48;52.40;;;24.63;;
49812;SDS011;35706;52.100;5.056;2022-10-14T02:41:50;52.35;;;26.70;;
49812;SDS011;35706;52.100;5.056;2022-10-14T02:42:50;53.08;;;25.40;;
49812;SDS011;35706;52.100;5.056;2022-10-14T02:43:51;54.38;;;27.15;;
49812;SDS011;35706;52.100;5.056;2022-10-14T02:44:52;50.88;;;24.75;;
49812;SDS011;35706;52.100;5.056;2022-10-14T02:45:57;56.92;;;26.30;;
49812;SDS011;35706;52.100;5.056;2022-10-14T02:47:01;53.00;;;25.95;;
49812;SDS011;35706;52.100;5.056;2022-10-14T02:48:01;56.78;;;26.60;;
49812;SDS011;35706;52.100;5.056;2022-10-14T02:49:01;50.50;;;26.08;;
49812;SDS011;35706;52.100;5.056;2022-10-14T02:50:02;54.58;;;26.77;;
49812;SDS011;35706;52.100;5.056;2022-10-14T02:51:03;48.88;;;25.90;;
49812;SDS011;35706;52.100;5.056;2022-10-14T02:52:03;58.72;;;26.80;;
49812;SDS011;35706;52.100;5.056;2022-10-14T02:53:04;53.05;;;25.63;;
49812;SDS011;35706;52.100;5.056;2022-10-14T02:54:04;56.47;;;26.52;;
49812;SDS011;35706;52.100;5.056;2022-10-14T02:55:04;54.53;;;25.50;;
49812;SDS011;35706;52.100;5.056;2022-10-14T02:56:05;54.65;;;25.15;;
49812;SDS011;35706;52.100;5.056;2022-10-14T02:57:06;51.35;;;25.85;;
49812;SDS011;35706;52.100;5.056;2022-10-14T02:58:06;49.03;;;25.45;;
49812;SDS011;35706;52.100;5.056;2022-10-14T02:59:06;58.38;;;26.55;;
49812;SDS011;35706;52.100;5.056;2022-10-14T03:00:07;54.58;;;26.33;;
49812;SDS011;35706;52.100;5.056;2022-10-14T03:01:08;53.33;;;26.13;;
49812;SDS011;35706;52.100;5.056;2022-10-14T03:02:08;52.47;;;25.00;;
49812;SDS011;35706;52.100;5.056;2022-10-14T03:03:09;50.92;;;23.98;;
49812;SDS011;35706;52.100;5.056;2022-10-14T03:04:09;54.15;;;25.80;;
49812;SDS011;35706;52.100;5.056;2022-10-14T03:05:09;57.13;;;26.30;;
49812;SDS011;35706;52.100;5.056;2022-10-14T03:06:10;57.95;;;27.02;;
49812;SDS011;35706;52.100;5.056;2022-10-14T03:07:10;54.13;;;26.13;;
49812;SDS011;35706;52.100;5.056;2022-10-14T03:08:10;53.72;;;25.33;;
49812;SDS011;35706;52.100;5.056;2022-10-14T03:09:11;56.40;;;26.75;;
49812;SDS011;35706;52.100;5.056;2022-10-14T03:10:11;56.28;;;26.40;;
49812;SDS011;35706;52.100;5.056;2022-10-14T03:11:11;52.17;;;24.98;;
49812;SDS011;35706;52.100;5.056;2022-10-14T03:12:11;56.97;;;26.15;;
49812;SDS011;35706;52.100;5.056;2022-10-14T03:13:12;56.60;;;26.65;;
49812;SDS011;35706;52.100;5.056;2022-10-14T03:14:12;53.40;;;25.92;;
49812;SDS011;35706;52.100;5.056;2022-10-14T03:15:13;52.67;;;25.42;;
49812;SDS011;35706;52.100;5.056;2022-10-14T03:16:13;49.33;;;25.70;;
49812;SDS011;35706;52.100;5.056;2022-10-14T03:17:13;54.55;;;26.52;;
49812;SDS011;35706;52.100;5.056;2022-10-14T03:18:14;56.50;;;26.25;;
49812;SDS011;35706;52.100;5.056;2022-10-14T03:19:14;52.92;;;24.80;;
49812;SDS011;35706;52.100;5.056;2022-10-14T03:20:14;54.45;;;25.35;;
49812;SDS011;35706;52.100;5.056;2022-10-14T03:21:15;54.65;;;25.85;;
49812;SDS011;35706;52.100;5.056;2022-10-14T03:22:15;53.85;;;25.83;;
49812;SDS011;35706;52.100;5.056;2022-10-14T03:23:15;54.67;;;26.33;;
49812;SDS011;35706;52.100;5.056;2022-10-14T03:24:15;52.90;;;25.40;;
49812;SDS011;35706;52.100;5.056;2022-10-14T03:25:16;55.15;;;25.67;;
49812;SDS011;35706;52.100;5.056;2022-10-14T03:26:16;54.75;;;26.73;;
49812;SDS011;35706;52.100;5.056;2022-10-14T03:27:16;53.60;;;25.73;;
49812;SDS011;35706;52.100;5.056;2022-10-14T03:28:17;49.60;;;25.08;;
49812;SDS011;35706;52.100;5.056;2022-10-14T03:29:17;48.10;;;24.73;;
49812;SDS011;35706;52.100;5.056;2022-10-14T03:30:17;58.08;;;27.50;;
49812;SDS011;35706;52.100;5.056;2022-10-14T03:31:18;52.63;;;26.40;;
49812;SDS011;35706;52.100;5.056;2022-10-14T03:32:18;50.53;;;25.58;;
49812;SDS011;35706;52.100;5.056;2022-10-14T03:33:18;48.30;;;24.70;;
49812;SDS011;35706;52.100;5.056;2022-10-14T03:34:18;52.72;;;25.17;;
49812;SDS011;35706;52.100;5.056;2022-10-14T03:35:19;46.47;;;23.73;;
49812;SDS011;35706;52.100;5.056;2022-10-14T03:36:19;46.63;;;24.80;;
49812;SDS011;35706;52.100;5.056;2022-10-14T03:37:20;48.80;;;24.13;;
49812;SDS011;35706;52.100;5.056;2022-10-14T03:38:20;49.72;;;25.75;;
49812;SDS011;35706;52.100;5.056;2022-10-14T03:39:20;54.63;;;25.05;;
49812;SDS011;35706;52.100;5.056;2022-10-14T03:40:21;50.90;;;26.02;;
49812;SDS011;35706;52.100;5.056;2022-10-14T03:41:21;52.90;;;25.27;;
49812;SDS011;35706;52.100;5.056;2022-10-14T03:42:22;49.17;;;24.42;;
49812;SDS011;35706;52.100;5.056;2022-10-14T03:43:22;53.53;;;27.13;;
49812;SDS011;35706;52.100;5.056;2022-10-14T03:44:22;51.47;;;25.67;;
49812;SDS011;35706;52.100;5.056;2022-10-14T03:45:22;52.45;;;26.55;;
49812;SDS011;35706;52.100;5.056;2022-10-14T03:46:23;50.00;;;25.58;;
49812;SDS011;35706;52.100;5.056;2022-10-14T03:47:23;54.25;;;26.10;;
49812;SDS011;35706;52.100;5.056;2022-10-14T03:48:23;60.00;;;28.02;;
49812;SDS011;35706;52.100;5.056;2022-10-14T03:49:23;57.33;;;28.13;;
49812;SDS011;35706;52.100;5.056;2022-10-14T03:50:24;59.75;;;26.45;;
49812;SDS011;35706;52.100;5.056;2022-10-14T03:51:24;63.80;;;28.63;;
49812;SDS011;35706;52.100;5.056;2022-10-14T03:52:25;62.65;;;29.50;;
49812;SDS011;35706;52.100;5.056;2022-10-14T03:53:25;61.33;;;27.60;;
49812;SDS011;35706;52.100;5.056;2022-10-14T03:54:25;62.80;;;28.45;;
49812;SDS011;35706;52.100;5.056;2022-10-14T03:55:26;65.28;;;29.75;;
49812;SDS011;35706;52.100;5.056;2022-10-14T03:56:26;60.45;;;29.02;;
49812;SDS011;35706;52.100;5.056;2022-10-14T03:57:26;60.80;;;28.42;;
49812;SDS011;35706;52.100;5.056;2022-10-14T03:58:26;64.22;;;30.60;;
49812;SDS011;35706;52.100;5.056;2022-10-14T03:59:27;66.93;;;30.30;;
49812;SDS011;35706;52.100;5.056;2022-10-14T04:00:27;71.13;;;33.28;;
49812;SDS011;35706;52.100;5.056;2022-10-14T04:01:27;65.32;;;30.48;;
49812;SDS011;35706;52.100;5.056;2022-10-14T04:02:28;70.60;;;30.98;;
49812;SDS011;35706;52.100;5.056;2022-10-14T04:03:28;67.38;;;30.92;;
49812;SDS011;35706;52.100;5.056;2022-10-14T04:04:28;69.60;;;30.15;;
49812;SDS011;35706;52.100;5.056;2022-10-14T04:05:29;70.82;;;31.30;;
49812;SDS011;35706;52.100;5.056;2022-10-14T04:06:32;68.97;;;30.75;;
49812;SDS011;35706;52.100;5.056;2022-10-14T04:07:32;69.97;;;30.98;;
49812;SDS011;35706;52.100;5.056;2022-10-14T04:08:33;69.53;;;31.17;;
49812;SDS011;35706;52.100;5.056;2022-10-14T04:09:33;82.32;;;32.95;;
49812;SDS011;35706;52.100;5.056;2022-10-14T04:10:33;70.00;;;31.67;;
49812;SDS011;35706;52.100;5.056;2022-10-14T04:11:34;73.38;;;31.38;;
49812;SDS011;35706;52.100;5.056;2022-10-14T04:12:34;76.40;;;32.90;;
49812;SDS011;35706;52.100;5.056;2022-10-14T04:13:34;71.30;;;31.80;;
49812;SDS011;35706;52.100;5.056;2022-10-14T04:14:35;71.80;;;31.65;;
49812;SDS011;35706;52.100;5.056;2022-10-14T04:15:36;73.75;;;32.28;;
49812;SDS011;35706;52.100;5.056;2022-10-14T04:16:36;84.93;;;34.72;;
49812;SDS011;35706;52.100;5.056;2022-10-14T04:17:36;76.82;;;33.30;;
49812;SDS011;35706;52.100;5.056;2022-10-14T04:18:37;80.20;;;33.42;;
49812;SDS011;35706;52.100;5.056;2022-10-14T04:19:38;73.90;;;31.80;;
49812;SDS011;35706;52.100;5.056;2022-10-14T04:20:38;71.63;;;31.10;;
49812;SDS011;35706;52.100;5.056;2022-10-14T04:21:39;78.75;;;33.22;;
49812;SDS011;35706;52.100;5.056;2022-10-14T04:22:39;73.07;;;32.70;;
49812;SDS011;35706;52.100;5.056;2022-10-14T04:23:39;80.93;;;33.60;;
49812;SDS011;35706;52.100;5.056;2022-10-14T04:24:39;74.15;;;32.40;;
49812;SDS011;35706;52.100;5.056;2022-10-14T04:25:40;70.97;;;30.83;;
49812;SDS011;35706;52.100;5.056;2022-10-14T04:26:40;79.38;;;33.67;;
49812;SDS011;35706;52.100;5.056;2022-10-14T04:27:40;68.20;;;30.75;;
49812;SDS011;35706;52.100;5.056;2022-10-14T04:28:41;74.22;;;32.35;;
49812;SDS011;35706;52.100;5.056;2022-10-14T04:29:41;71.80;;;31.35;;
49812;SDS011;35706;52.100;5.056;2022-10-14T04:30:41;68.82;;;29.80;;
49812;SDS011;35706;52.100;5.056;2022-10-14T04:31:42;76.07;;;31.95;;
49812;SDS011;35706;52.100;5.056;2022-10-14T04:32:42;74.50;;;32.78;;
49812;SDS011;35706;52.100;5.056;2022-10-14T04:33:43;66.63;;;30.90;;
49812;SDS011;35706;52.100;5.056;2022-10-14T04:34:43;73.88;;;31.85;;
49812;SDS011;35706;52.100;5.056;2022-10-14T04:35:43;68.45;;;29.48;;
49812;SDS011;35706;52.100;5.056;2022-10-14T04:36:43;68.07;;;29.80;;
49812;SDS011;35706;52.100;5.056;2022-10-14T04:37:44;72.88;;;32.25;;
49812;SDS011;35706;52.100;5.056;2022-10-14T04:38:44;74.78;;;31.90;;
49812;SDS011;35706;52.100;5.056;2022-10-14T04:39:44;68.07;;;31.60;;
49812;SDS011;35706;52.100;5.056;2022-10-14T04:40:45;69.88;;;31.10;;
49812;SDS011;35706;52.100;5.056;2022-10-14T04:41:46;67.90;;;30.27;;
49812;SDS011;35706;52.100;5.056;2022-10-14T04:42:46;66.95;;;31.40;;
49812;SDS011;35706;52.100;5.056;2022-10-14T04:43:46;72.28;;;31.42;;
49812;SDS011;35706;52.100;5.056;2022-10-14T04:44:46;72.68;;;32.75;;
49812;SDS011;35706;52.100;5.056;2022-10-14T04:45:47;79.95;;;35.38;;
49812;SDS011;35706;52.100;5.056;2022-10-14T04:46:47;75.35;;;33.35;;
49812;SDS011;35706;52.100;5.056;2022-10-14T04:47:47;76.28;;;32.30;;
49812;SDS011;35706;52.100;5.056;2022-10-14T04:48:48;81.47;;;34.47;;
49812;SDS011;35706;52.100;5.056;2022-10-14T04:49:49;79.97;;;34.22;;
49812;SDS011;35706;52.100;5.056;2022-10-14T04:50:50;81.82;;;34.30;;
49812;SDS011;35706;52.100;5.056;2022-10-14T04:51:51;77.18;;;34.05;;
49812;SDS011;35706;52.100;5.056;2022-10-14T04:52:51;74.65;;;32.63;;
49812;SDS011;35706;52.100;5.056;2022-10-14T04:53:51;73.57;;;33.03;;
49812;SDS011;35706;52.100;5.056;2022-10-14T04:54:51;73.18;;;32.35;;
49812;SDS011;35706;52.100;5.056;2022-10-14T04:55:52;76.70;;;32.78;;
49812;SDS011;35706;52.100;5.056;2022-10-14T04:56:52;81.70;;;33.33;;
49812;SDS011;35706;52.100;5.056;2022-10-14T04:57:52;74.13;;;33.72;;
49812;SDS011;35706;52.100;5.056;2022-10-14T04:58:53;78.60;;;34.20;;
49812;SDS011;35706;52.100;5.056;2022-10-14T04:59:53;73.03;;;32.83;;
49812;SDS011;35706;52.100;5.056;2022-10-14T05:00:54;76.03;;;33.10;;
49812;SDS011;35706;52.100;5.056;2022-10-14T05:01:54;77.78;;;33.75;;
49812;SDS011;35706;52.100;5.056;2022-10-14T05:02:54;75.65;;;31.45;;
49812;SDS011;35706;52.100;5.056;2022-10-14T05:03:55;78.13;;;32.83;;
49812;SDS011;35706;52.100;5.056;2022-10-14T05:04:55;75.78;;;33.45;;
49812;SDS011;35706;52.100;5.056;2022-10-14T05:05:56;75.55;;;32.90;;
49812;SDS011;35706;52.100;5.056;2022-10-14T05:06:57;73.18;;;33.40;;
49812;SDS011;35706;52.100;5.056;2022-10-14T05:07:57;69.32;;;30.77;;
49812;SDS011;35706;52.100;5.056;2022-10-14T05:08:57;77.82;;;32.25;;
49812;SDS011;35706;52.100;5.056;2022-10-14T05:09:58;73.90;;;31.88;;
49812;SDS011;35706;52.100;5.056;2022-10-14T05:10:58;76.10;;;34.08;;
49812;SDS011;35706;52.100;5.056;2022-10-14T05:11:59;76.78;;;32.92;;
49812;SDS011;35706;52.100;5.056;2022-10-14T05:12:59;70.95;;;31.48;;
49812;SDS011;35706;52.100;5.056;2022-10-14T05:13:59;70.75;;;32.28;;
49812;SDS011;35706;52.100;5.056;2022-10-14T05:15:00;77.00;;;33.50;;
49812;SDS011;35706;52.100;5.056;2022-10-14T05:16:00;71.78;;;31.88;;
49812;SDS011;35706;52.100;5.056;2022-10-14T05:17:01;79.03;;;34.42;;
49812;SDS011;35706;52.100;5.056;2022-10-14T05:18:02;75.50;;;33.58;;
49812;SDS011;35706;52.100;5.056;2022-10-14T05:19:02;72.90;;;32.88;;
49812;SDS011;35706;52.100;5.056;2022-10-14T05:20:03;67.65;;;30.73;;
49812;SDS011;35706;52.100;5.056;2022-10-14T05:21:03;74.38;;;32.15;;
49812;SDS011;35706;52.100;5.056;2022-10-14T05:22:03;74.82;;;31.80;;
49812;SDS011;35706;52.100;5.056;2022-10-14T05:23:04;70.10;;;31.05;;
49812;SDS011;35706;52.100;5.056;2022-10-14T05:24:05;74.65;;;30.98;;
49812;SDS011;35706;52.100;5.056;2022-10-14T05:25:05;72.10;;;31.50;;
49812;SDS011;35706;52.100;5.056;2022-10-14T05:26:06;68.03;;;31.85;;
49812;SDS011;35706;52.100;5.056;2022-10-14T05:27:09;69.20;;;31.00;;
49812;SDS011;35706;52.100;5.056;2022-10-14T05:28:09;67.80;;;31.05;;
49812;SDS011;35706;52.100;5.056;2022-10-14T05:29:10;64.90;;;29.80;;
49812;SDS011;35706;52.100;5.056;2022-10-14T05:30:11;64.90;;;31.25;;
49812;SDS011;35706;52.100;5.056;2022-10-14T05:31:11;67.22;;;31.95;;
49812;SDS011;35706;52.100;5.056;2022-10-14T05:32:12;66.18;;;30.23;;
49812;SDS011;35706;52.100;5.056;2022-10-14T05:33:12;60.75;;;30.10;;
49812;SDS011;35706;52.100;5.056;2022-10-14T05:34:12;66.60;;;31.10;;
49812;SDS011;35706;52.100;5.056;2022-10-14T05:35:13;64.25;;;31.60;;
49812;SDS011;35706;52.100;5.056;2022-10-14T05:36:13;62.80;;;30.52;;
49812;SDS011;35706;52.100;5.056;2022-10-14T05:37:13;62.70;;;28.92;;
49812;SDS011;35706;52.100;5.056;2022-10-14T05:38:13;62.38;;;29.15;;
49812;SDS011;35706;52.100;5.056;2022-10-14T05:39:14;62.55;;;29.73;;
49812;SDS011;35706;52.100;5.056;2022-10-14T05:40:14;62.70;;;28.20;;
49812;SDS011;35706;52.100;5.056;2022-10-14T05:41:15;60.30;;;27.85;;
49812;SDS011;35706;52.100;5.056;2022-10-14T05:42:15;61.17;;;28.98;;
49812;SDS011;35706;52.100;5.056;2022-10-14T05:43:15;58.75;;;29.00;;
49812;SDS011;35706;52.100;5.056;2022-10-14T05:44:16;49.42;;;26.58;;
49812;SDS011;35706;52.100;5.056;2022-10-14T05:45:16;58.22;;;27.67;;
49812;SDS011;35706;52.100;5.056;2022-10-14T05:46:16;56.33;;;27.70;;
49812;SDS011;35706;52.100;5.056;2022-10-14T05:47:17;56.00;;;27.35;;
49812;SDS011;35706;52.100;5.056;2022-10-14T05:48:18;59.17;;;27.45;;
49812;SDS011;35706;52.100;5.056;2022-10-14T05:49:19;55.03;;;25.33;;
49812;SDS011;35706;52.100;5.056;2022-10-14T05:50:19;56.47;;;27.25;;
49812;SDS011;35706;52.100;5.056;2022-10-14T05:51:19;49.50;;;25.30;;
49812;SDS011;35706;52.100;5.056;2022-10-14T05:52:21;49.70;;;25.83;;
49812;SDS011;35706;52.100;5.056;2022-10-14T05:53:21;54.83;;;27.33;;
49812;SDS011;35706;52.100;5.056;2022-10-14T05:54:22;48.17;;;24.77;;
49812;SDS011;35706;52.100;5.056;2022-10-14T05:55:22;50.60;;;23.77;;
49812;SDS011;35706;52.100;5.056;2022-10-14T05:56:22;47.45;;;23.02;;
49812;SDS011;35706;52.100;5.056;2022-10-14T05:57:23;45.45;;;23.48;;
49812;SDS011;35706;52.100;5.056;2022-10-14T05:58:23;43.92;;;22.90;;
49812;SDS011;35706;52.100;5.056;2022-10-14T05:59:23;50.33;;;26.08;;
49812;SDS011;35706;52.100;5.056;2022-10-14T06:00:24;45.08;;;23.52;;
49812;SDS011;35706;52.100;5.056;2022-10-14T06:01:24;36.13;;;20.02;;
49812;SDS011;35706;52.100;5.056;2022-10-14T06:02:25;43.08;;;21.52;;
49812;SDS011;35706;52.100;5.056;2022-10-14T06:03:26;40.08;;;21.80;;
49812;SDS011;35706;52.100;5.056;2022-10-14T06:04:26;42.83;;;20.90;;
49812;SDS011;35706;52.100;5.056;2022-10-14T06:05:26;40.15;;;22.00;;
49812;SDS011;35706;52.100;5.056;2022-10-14T06:06:27;38.38;;;20.88;;
49812;SDS011;35706;52.100;5.056;2022-10-14T06:07:27;40.70;;;20.08;;
49812;SDS011;35706;52.100;5.056;2022-10-14T06:08:27;35.60;;;18.95;;
49812;SDS011;35706;52.100;5.056;2022-10-14T06:09:31;39.05;;;19.52;;
49812;SDS011;35706;52.100;5.056;2022-10-14T06:10:33;33.17;;;19.02;;
49812;SDS011;35706;52.100;5.056;2022-10-14T06:11:34;32.78;;;18.30;;
49812;SDS011;35706;52.100;5.056;2022-10-14T06:12:34;34.38;;;19.13;;
49812;SDS011;35706;52.100;5.056;2022-10-14T06:13:35;34.58;;;18.13;;
49812;SDS011;35706;52.100;5.056;2022-10-14T06:14:36;33.38;;;18.60;;
49812;SDS011;35706;52.100;5.056;2022-10-14T06:15:37;30.40;;;16.83;;
49812;SDS011;35706;52.100;5.056;2022-10-14T06:16:38;30.73;;;17.05;;
49812;SDS011;35706;52.100;5.056;2022-10-14T06:17:38;34.92;;;17.55;;
49812;SDS011;35706;52.100;5.056;2022-10-14T06:18:38;30.55;;;16.98;;
49812;SDS011;35706;52.100;5.056;2022-10-14T06:19:39;30.98;;;17.00;;
49812;SDS011;35706;52.100;5.056;2022-10-14T06:20:39;31.23;;;16.63;;
49812;SDS011;35706;52.100;5.056;2022-10-14T06:21:39;28.83;;;15.70;;
49812;SDS011;35706;52.100;5.056;2022-10-14T06:22:40;29.75;;;16.67;;
49812;SDS011;35706;52.100;5.056;2022-10-14T06:23:40;35.53;;;18.35;;